Terminal Aerodrome Forecast
Issued by NWS Wichita, KS

Home | Current Version | Previous Version | Text Only | Print | Product List | Glossary Off
Versions: 1 2 3 4 5 6 7 8 9 10 11 12 13 14 15 16 17 18 19 20 21 22 23 24 25 26 27 28

000
FTUS43 KICT 261802 CCA
TAFICT
TAF COR
KICT 261802Z 2618/2718 17013G20KT P6SM VCTS BKN040CB
      TEMPO 2618/2620 VRB30G40KT 2SM +TSRA SCT015 OVC040CB
     FM270500 16015G23KT P6SM SCT015 BKN050
     FM270600 14007KT P6SM OVC015
      TEMPO 2710/2714 OVC008=

USA.gov is the U.S. government's official web portal to all federal, state and local government web resources and services.